^^
Datos históricos de la estación: Murcia-Puente Tocinos
Diario Informe para Agosto 19, 2019 Unidades:  Ambas    Ingés   Métrico
Diario Semanal Mensual Anual
  Máxima: Mínima: Promedio:
Temperatura: 89.8 °F /  32.1 °C 72.1 °F /  22.3 °C 80.4 °F /  26.9 °C
Punto de rocio: 69.6 °F /  20.9 °C 55.2 °F /  12.9 °C 64.8 °F /  18.2 °C
Humedad: 81% 31.5% 62%
Velocidad viento: 11.8mph /  19km/h - 5.5mph /  8.9km/h
Racha viento: 23mph /  37km/h - -
Viento- - ENE
Presión: 30 in /  1014.8 hPa 29.9 in /  1011.2 hPa -
Precipitación: 0 in /  0.0 mm    
 
 
Tabla de datos para Agosto 19, 2019
Hora Temperatura Punto de rocio Presión Viento Velocidad viento Racha viento Humedad Intensidad lluvia(por hora) Nubes
00:04 76.6 °F /  24.8 °C 67.1 °F /  19.5 °C 29.9in /  1013.6hPa NE 6.4mph /  10.3km/h 9.2mph /  14.8km/h 72.5% 0in /  0.0mm
00:09 76.6 °F /  24.8 °C 67.3 °F /  19.6 °C 29.9in /  1013.6hPa NE 6.2mph /  10km/h 9mph /  14.5km/h 73% 0in /  0.0mm
00:14 76.5 °F /  24.7 °C 67.3 °F /  19.6 °C 29.9in /  1013.6hPa NE 5.4mph /  8.7km/h 11.5mph /  18.5km/h 73.2% 0in /  0.0mm
00:19 76.3 °F /  24.6 °C 67.5 °F /  19.7 °C 29.9in /  1013.6hPa NE 5.5mph /  8.9km/h 12mph /  19.3km/h 74% 0in /  0.0mm
00:24 76.3 °F /  24.6 °C 67.5 °F /  19.7 °C 29.9in /  1013.5hPa NE 6.2mph /  10km/h 9mph /  14.5km/h 74% 0in /  0.0mm
00:29 76.3 °F /  24.6 °C 67.5 °F /  19.7 °C 29.9in /  1013.5hPa NE 5.9mph /  9.5km/h 8.1mph /  13km/h 74% 0in /  0.0mm
00:34 76.1 °F /  24.5 °C 67.3 °F /  19.6 °C 29.9in /  1013.7hPa NE 5.2mph /  8.4km/h 8mph /  12.9km/h 74% 0in /  0.0mm
00:39 75.9 °F /  24.4 °C 67.3 °F /  19.6 °C 29.9in /  1013.7hPa NE 5.1mph /  8.2km/h 7mph /  11.3km/h 74.4% 0in /  0.0mm
00:44 75.9 °F /  24.4 °C 67.5 °F /  19.7 °C 29.9in /  1013.7hPa NE 4.7mph /  7.6km/h 8.1mph /  13km/h 75% 0in /  0.0mm
00:49 75.7 °F /  24.3 °C 67.3 °F /  19.6 °C 29.9in /  1013.7hPa NE 4.8mph /  7.8km/h 8.1mph /  13km/h 75% 0in /  0.0mm
00:54 75.7 °F /  24.3 °C 67.3 °F /  19.6 °C 29.9in /  1013.7hPa NNE 5.2mph /  8.4km/h 7.4mph /  11.9km/h 75.5% 0in /  0.0mm
00:59 75.6 °F /  24.2 °C 67.5 °F /  19.7 °C 29.9in /  1013.7hPa NE 4.8mph /  7.8km/h 7.6mph /  12.2km/h 76% 0in /  0.0mm
01:04 75.6 °F /  24.2 °C 67.6 °F /  19.8 °C 29.9in /  1013.8hPa NE 4mph /  6.5km/h 8.1mph /  13km/h 76.6% 0in /  0.0mm
01:09 75.4 °F /  24.1 °C 67.6 °F /  19.8 °C 29.9in /  1013.8hPa NE 4.5mph /  7.2km/h 8.1mph /  13km/h 77% 0in /  0.0mm
01:14 75.4 °F /  24.1 °C 67.6 °F /  19.8 °C 29.9in /  1013.8hPa NE 5.9mph /  9.5km/h 9.2mph /  14.8km/h 77% 0in /  0.0mm
01:19 75.4 °F /  24.1 °C 67.6 °F /  19.8 °C 29.9in /  1013.8hPa NE 5.7mph /  9.2km/h 10.4mph /  16.7km/h 77% 0in /  0.0mm
01:24 75.4 °F /  24.1 °C 67.6 °F /  19.8 °C 29.9in /  1013.8hPa NE 5.2mph /  8.4km/h 10mph /  16.1km/h 77% 0in /  0.0mm
01:29 75.2 °F /  24 °C 67.6 °F /  19.8 °C 29.9in /  1013.8hPa NE 5.2mph /  8.4km/h 8.1mph /  13km/h 77% 0in /  0.0mm
01:34 75 °F /  23.9 °C 67.6 °F /  19.8 °C 29.9in /  1013.9hPa NE 5.2mph /  8.4km/h 8mph /  12.9km/h 77.8% 0in /  0.0mm
01:39 75 °F /  23.9 °C 67.6 °F /  19.8 °C 29.9in /  1013.9hPa NE 5.2mph /  8.4km/h 8.1mph /  13km/h 78% 0in /  0.0mm
01:44 75 °F /  23.9 °C 67.6 °F /  19.8 °C 29.9in /  1013.9hPa NE 5.2mph /  8.4km/h 8mph /  12.9km/h 78% 0in /  0.0mm
01:49 74.8 °F /  23.8 °C 67.6 °F /  19.8 °C 29.9in /  1013.9hPa NE 5.1mph /  8.2km/h 7.4mph /  11.9km/h 78% 0in /  0.0mm
01:54 74.8 °F /  23.8 °C 67.5 °F /  19.7 °C 29.9in /  1013.9hPa NE 4.7mph /  7.6km/h 9.2mph /  14.8km/h 78% 0in /  0.0mm
01:59 74.8 °F /  23.8 °C 67.6 °F /  19.8 °C 29.9in /  1013.9hPa NE 4.8mph /  7.8km/h 9mph /  14.5km/h 78.6% 0in /  0.0mm
02:04 74.7 °F /  23.7 °C 67.6 °F /  19.8 °C 29.9in /  1013.9hPa NE 5.2mph /  8.4km/h 7.4mph /  11.9km/h 79% 0in /  0.0mm
02:09 74.7 °F /  23.7 °C 67.6 °F /  19.8 °C 29.9in /  1013.8hPa NE 4.9mph /  7.9km/h 7mph /  11.3km/h 79% 0in /  0.0mm
02:14 74.5 °F /  23.6 °C 67.5 °F /  19.7 °C 29.9in /  1013.8hPa NNE 4mph /  6.5km/h 6.9mph /  11.1km/h 79% 0in /  0.0mm
02:19 74.5 °F /  23.6 °C 67.5 °F /  19.7 °C 29.9in /  1013.9hPa NE 3.9mph /  6.3km/h 8.1mph /  13km/h 79% 0in /  0.0mm
02:24 74.5 °F /  23.6 °C 67.5 °F /  19.7 °C 29.9in /  1013.9hPa NNE 3.6mph /  5.8km/h 8mph /  12.9km/h 79% 0in /  0.0mm
02:29 74.5 °F /  23.6 °C 67.5 °F /  19.7 °C 29.9in /  1013.9hPa NNE 3.4mph /  5.5km/h 6mph /  9.7km/h 79% 0in /  0.0mm
02:34 74.3 °F /  23.5 °C 67.6 °F /  19.8 °C 29.9in /  1013.9hPa NNE 2.9mph /  4.7km/h 6.4mph /  10.3km/h 79.8% 0in /  0.0mm
02:39 74.3 °F /  23.5 °C 67.8 °F /  19.9 °C 29.9in /  1013.8hPa NNE 2.9mph /  4.7km/h 7mph /  11.3km/h 80% 0in /  0.0mm
02:44 74.3 °F /  23.5 °C 67.6 °F /  19.8 °C 29.9in /  1013.8hPa NNE 3.1mph /  5km/h 7mph /  11.3km/h 80% 0in /  0.0mm
02:49 74.1 °F /  23.4 °C 67.6 °F /  19.8 °C 29.9in /  1013.8hPa NNE 3mph /  4.9km/h 5mph /  8km/h 80% 0in /  0.0mm
02:54 74.1 °F /  23.4 °C 67.6 °F /  19.8 °C 29.9in /  1013.8hPa NE 2.9mph /  4.7km/h 5.9mph /  9.5km/h 80% 0in /  0.0mm
02:59 74.1 °F /  23.4 °C 67.6 °F /  19.8 °C 29.9in /  1013.8hPa NE 3mph /  4.8km/h 6mph /  9.7km/h 80% 0in /  0.0mm
03:04 74.1 °F /  23.4 °C 67.6 °F /  19.8 °C 29.9in /  1013.8hPa NE 3.1mph /  5km/h 6mph /  9.7km/h 80.1% 0in /  0.0mm
03:09 73.9 °F /  23.3 °C 67.6 °F /  19.8 °C 29.9in /  1013.8hPa NE 3.1mph /  5km/h 6mph /  9.7km/h 80.6% 0in /  0.0mm
03:14 73.9 °F /  23.3 °C 67.8 °F /  19.9 °C 29.9in /  1013.8hPa NE 3.1mph /  5km/h 5mph /  8km/h 81% 0in /  0.0mm
03:19 74.1 °F /  23.4 °C 67.6 °F /  19.8 °C 29.9in /  1013.8hPa ENE 3.1mph /  5km/h 5.2mph /  8.4km/h 80.4% 0in /  0.0mm
03:24 74.1 °F /  23.4 °C 67.6 °F /  19.8 °C 29.9in /  1013.6hPa NE 3.1mph /  5km/h 5mph /  8km/h 80% 0in /  0.0mm
03:29 73.9 °F /  23.3 °C 67.5 °F /  19.7 °C 29.9in /  1013.6hPa ENE 2.8mph /  4.5km/h 5mph /  8km/h 80% 0in /  0.0mm
03:34 73.9 °F /  23.3 °C 67.6 °F /  19.8 °C 29.9in /  1013.6hPa ENE 2mph /  3.2km/h 5mph /  8km/h 80.7% 0in /  0.0mm
03:39 73.8 °F /  23.2 °C 67.6 °F /  19.8 °C 29.9in /  1013.5hPa ENE 2mph /  3.2km/h 5.4mph /  8.7km/h 81% 0in /  0.0mm
03:44 73.8 °F /  23.2 °C 67.6 °F /  19.8 °C 29.9in /  1013.5hPa NE 2mph /  3.2km/h 6mph /  9.7km/h 81% 0in /  0.0mm
03:49 73.8 °F /  23.2 °C 67.5 °F /  19.7 °C 29.9in /  1013.5hPa NE 2.3mph /  3.7km/h 6mph /  9.7km/h 81% 0in /  0.0mm
03:54 73.6 °F /  23.1 °C 67.1 °F /  19.5 °C 29.9in /  1013.4hPa NE 3.1mph /  5km/h 5mph /  8km/h 80.2% 0in /  0.0mm
03:59 73.6 °F /  23.1 °C 66.9 °F /  19.4 °C 29.9in /  1013.4hPa NE 2.7mph /  4.4km/h 4mph /  6.4km/h 80% 0in /  0.0mm
04:04 73.6 °F /  23.1 °C 66.9 °F /  19.4 °C 29.9in /  1013.4hPa NE 1.8mph /  2.9km/h 2mph /  3.2km/h 80% 0in /  0.0mm
04:09 73.6 °F /  23.1 °C 66.9 °F /  19.4 °C 29.9in /  1013.2hPa Este 1.7mph /  2.7km/h 4.6mph /  7.4km/h 79.7% 0in /  0.0mm
04:14 73.6 °F /  23.1 °C 66.7 °F /  19.3 °C 29.9in /  1013.2hPa ESE 1.4mph /  2.2km/h 5mph /  8km/h 79% 0in /  0.0mm
04:19 73.6 °F /  23.1 °C 66.7 °F /  19.3 °C 29.9in /  1013.2hPa ESE 1.5mph /  2.4km/h 5mph /  8km/h 79% 0in /  0.0mm
04:24 73.6 °F /  23.1 °C 66.7 °F /  19.3 °C 29.9in /  1013.2hPa ESE 1.8mph /  2.9km/h 3mph /  4.8km/h 79% 0in /  0.0mm
04:29 73.6 °F /  23.1 °C 66.7 °F /  19.3 °C 29.9in /  1013.2hPa ESE 1.4mph /  2.2km/h 4.6mph /  7.4km/h 79% 0in /  0.0mm
04:34 73.6 °F /  23.1 °C 66.6 °F /  19.2 °C 29.9in /  1013.2hPa Calm   5mph /  8km/h 78.7% 0in /  0.0mm
04:39 73.6 °F /  23.1 °C 66.2 °F /  19 °C 29.9in /  1013.1hPa ESE 0.6mph /  0.9km/h 4.6mph /  7.4km/h 78% 0in /  0.0mm
04:44 73.6 °F /  23.1 °C 66.4 °F /  19.1 °C 29.9in /  1013.1hPa ESE 2mph /  3.2km/h 5mph /  8km/h 78% 0in /  0.0mm
04:49 73.4 °F /  23 °C 65.8 °F /  18.8 °C 29.9in /  1013.1hPa ESE 2mph /  3.2km/h 5mph /  8km/h 77% 0in /  0.0mm
04:54 73.2 °F /  22.9 °C 65.7 °F /  18.7 °C 29.9in /  1013.1hPa ESE 2mph /  3.2km/h 5mph /  8km/h 77% 0in /  0.0mm
04:59 73.2 °F /  22.9 °C 65.7 °F /  18.7 °C 29.9in /  1013.1hPa ESE 1.9mph /  3.1km/h 4mph /  6.4km/h 77% 0in /  0.0mm
05:04 73 °F /  22.8 °C 65.8 °F /  18.8 °C 29.9in /  1013.1hPa ESE 1.8mph /  2.9km/h 4mph /  6.4km/h 78% 0in /  0.0mm
05:09 73 °F /  22.8 °C 65.8 °F /  18.8 °C 29.9in /  1013.0hPa ESE 1.8mph /  2.9km/h 4mph /  6.4km/h 78% 0in /  0.0mm
05:14 73 °F /  22.8 °C 65.8 °F /  18.8 °C 29.9in /  1013.0hPa ESE 1.8mph /  2.9km/h 3mph /  4.8km/h 78% 0in /  0.0mm
05:19 73 °F /  22.8 °C 65.8 °F /  18.8 °C 29.9in /  1013.0hPa ESE 1.3mph /  2.1km/h 2mph /  3.2km/h 78% 0in /  0.0mm
05:24 73 °F /  22.8 °C 65.8 °F /  18.8 °C 29.9in /  1013.0hPa Calm     78% 0in /  0.0mm
05:29 73 °F /  22.8 °C 65.8 °F /  18.8 °C 29.9in /  1013.0hPa Calm     78% 0in /  0.0mm
05:34 73.2 °F /  22.9 °C 65.8 °F /  18.8 °C 29.9in /  1013.1hPa Calm   4.6mph /  7.4km/h 78% 0in /  0.0mm
05:39 73.2 °F /  22.9 °C 65.8 °F /  18.8 °C 29.9in /  1013.1hPa ESE 0.4mph /  0.7km/h 5mph /  8km/h 78% 0in /  0.0mm
05:44 73.2 °F /  22.9 °C 65.8 °F /  18.8 °C 29.9in /  1013.1hPa ESE 1.8mph /  2.9km/h 3mph /  4.8km/h 78% 0in /  0.0mm
05:49 73.2 °F /  22.9 °C 66.2 °F /  19 °C 29.9in /  1013.1hPa ESE 1.4mph /  2.2km/h 2mph /  3.2km/h 79% 0in /  0.0mm
05:54 73.2 °F /  22.9 °C 66.2 °F /  19 °C 29.9in /  1013.1hPa Calm     78.8% 0in /  0.0mm
05:59 73.2 °F /  22.9 °C 66 °F /  18.9 °C 29.9in /  1013.1hPa Calm     78.5% 0in /  0.0mm
06:04 73 °F /  22.8 °C 65.8 °F /  18.8 °C 29.9in /  1013.2hPa Calm     78% 0in /  0.0mm
06:09 73 °F /  22.8 °C 65.7 °F /  18.7 °C 29.9in /  1013.2hPa Calm   2.4mph /  3.9km/h 78% 0in /  0.0mm
06:14 72.9 °F /  22.7 °C 65.7 °F /  18.7 °C 29.9in /  1013.2hPa Calm   2.9mph /  4.7km/h 78% 0in /  0.0mm
06:19 72.7 °F /  22.6 °C 65.5 °F /  18.6 °C 29.9in /  1013.3hPa ESE 0.4mph /  0.7km/h 3.5mph /  5.6km/h 78% 0in /  0.0mm
06:24 72.7 °F /  22.6 °C 65.3 °F /  18.5 °C 29.9in /  1013.3hPa ESE 1.8mph /  2.9km/h 3.6mph /  5.8km/h 78% 0in /  0.0mm
06:29 72.3 °F /  22.4 °C 65.1 °F /  18.4 °C 29.9in /  1013.3hPa ESE 1.9mph /  3km/h 4mph /  6.4km/h 78.1% 0in /  0.0mm
06:34 72.3 °F /  22.4 °C 65.1 °F /  18.4 °C 29.9in /  1013.3hPa ESE 2mph /  3.2km/h 3.5mph /  5.6km/h 78% 0in /  0.0mm
06:39 72.3 °F /  22.4 °C 65.1 °F /  18.4 °C 29.9in /  1013.3hPa ESE 1.9mph /  3km/h 3mph /  4.8km/h 78% 0in /  0.0mm
06:44 72.1 °F /  22.3 °C 64.9 °F /  18.3 °C 29.9in /  1013.3hPa ESE 1.4mph /  2.2km/h 2.9mph /  4.7km/h 78% 0in /  0.0mm
06:49 72.1 °F /  22.3 °C 64.9 °F /  18.3 °C 29.9in /  1013.6hPa ESE 1.1mph /  1.7km/h 3.5mph /  5.6km/h 78% 0in /  0.0mm
06:54 72.1 °F /  22.3 °C 64.9 °F /  18.3 °C 29.9in /  1013.6hPa Calm   3mph /  4.8km/h 78% 0in /  0.0mm
06:59 72.1 °F /  22.3 °C 64.9 °F /  18.3 °C 29.9in /  1013.6hPa Calm   2mph /  3.2km/h 78% 0in /  0.0mm
07:04 72.1 °F /  22.3 °C 64.8 °F /  18.2 °C 29.9in /  1013.6hPa Calm     77.7% 0in /  0.0mm
07:09 72.3 °F /  22.4 °C 64.8 °F /  18.2 °C 29.9in /  1013.5hPa Calm     77.3% 0in /  0.0mm
07:14 72.3 °F /  22.4 °C 64.8 °F /  18.2 °C 29.9in /  1013.5hPa Calm     77% 0in /  0.0mm
07:19 72.3 °F /  22.4 °C 64.8 °F /  18.2 °C 29.9in /  1013.7hPa Calm     77% 0in /  0.0mm
07:24 72.3 °F /  22.4 °C 64.8 °F /  18.2 °C 29.9in /  1013.7hPa Calm     77.1% 0in /  0.0mm
07:29 72.5 °F /  22.5 °C 65.1 °F /  18.4 °C 29.9in /  1013.7hPa Calm     77.7% 0in /  0.0mm
07:34 72.7 °F /  22.6 °C 65.1 °F /  18.4 °C 29.9in /  1013.8hPa Calm     77% 0in /  0.0mm
07:39 73 °F /  22.8 °C 65.1 °F /  18.4 °C 29.9in /  1013.8hPa Calm     76.7% 0in /  0.0mm
07:44 73 °F /  22.8 °C 64.9 °F /  18.3 °C 29.9in /  1013.8hPa Calm   3.5mph /  5.6km/h 75.4% 0in /  0.0mm
07:49 73.2 °F /  22.9 °C 64.9 °F /  18.3 °C 29.9in /  1014.0hPa ESE 0.4mph /  0.6km/h 3mph /  4.8km/h 75% 0in /  0.0mm
07:54 73.4 °F /  23 °C 64.8 °F /  18.2 °C 29.9in /  1014.0hPa SE 1.4mph /  2.2km/h 4.7mph /  7.6km/h 74.2% 0in /  0.0mm
07:59 73.4 °F /  23 °C 64.9 °F /  18.3 °C 29.9in /  1014.0hPa SE 1.6mph /  2.5km/h 5mph /  8km/h 74.5% 0in /  0.0mm
08:04 73.4 °F /  23 °C 64.9 °F /  18.3 °C 29.9in /  1014.0hPa SSE 2mph /  3.2km/h 5mph /  8km/h 75% 0in /  0.0mm
08:09 73.6 °F /  23.1 °C 65.1 °F /  18.4 °C 29.9in /  1014.0hPa Sur 2.3mph /  3.7km/h 5.2mph /  8.4km/h 75% 0in /  0.0mm
08:14 73.6 °F /  23.1 °C 65.1 °F /  18.4 °C 29.9in /  1014.0hPa SSE 3.1mph /  5km/h 5mph /  8km/h 75% 0in /  0.0mm
08:19 73.8 °F /  23.2 °C 65.3 °F /  18.5 °C 29.9in /  1014.1hPa SSE 2.8mph /  4.5km/h 5mph /  8km/h 75% 0in /  0.0mm
08:24 73.9 °F /  23.3 °C 65.3 °F /  18.5 °C 29.9in /  1014.1hPa SSE 2mph /  3.2km/h 5.9mph /  9.5km/h 74% 0in /  0.0mm
08:29 74.3 °F /  23.5 °C 65.5 °F /  18.6 °C 29.9in /  1014.1hPa SSE 2.1mph /  3.4km/h 6mph /  9.7km/h 74% 0in /  0.0mm
08:34 74.7 °F /  23.7 °C 65.7 °F /  18.7 °C 29.9in /  1014.1hPa SSE 2.4mph /  3.9km/h 4mph /  6.4km/h 73.7% 0in /  0.0mm
08:39 75.4 °F /  24.1 °C 66 °F /  18.9 °C 29.9in /  1014.1hPa SSE 1.8mph /  2.9km/h 2mph /  3.2km/h 72.8% 0in /  0.0mm
08:44 75.7 °F /  24.3 °C 65.8 °F /  18.8 °C 29.9in /  1014.1hPa Calm     71.3% 0in /  0.0mm
08:49 75.9 °F /  24.4 °C 65.8 °F /  18.8 °C 30in /  1014.4hPa Calm   4.6mph /  7.4km/h 71% 0in /  0.0mm
08:54 75.9 °F /  24.4 °C 65.8 °F /  18.8 °C 30in /  1014.4hPa Calm   5mph /  8km/h 71% 0in /  0.0mm
08:59 75.7 °F /  24.3 °C 65.7 °F /  18.7 °C 30in /  1014.4hPa SSE 0.6mph /  0.9km/h 4.6mph /  7.4km/h 71% 0in /  0.0mm
09:04 75.7 °F /  24.3 °C 66 °F /  18.9 °C 30in /  1014.5hPa Sur 2mph /  3.2km/h 5mph /  8km/h 71.8% 0in /  0.0mm
09:09 75.6 °F /  24.2 °C 66 °F /  18.9 °C 30in /  1014.5hPa SSE 2.1mph /  3.4km/h 5mph /  8km/h 72% 0in /  0.0mm
09:14 75.6 °F /  24.2 °C 65.8 °F /  18.8 °C 30in /  1014.5hPa SSE 2.4mph /  3.9km/h 5.8mph /  9.3km/h 72.1% 0in /  0.0mm
09:19 75.4 °F /  24.1 °C 66 °F /  18.9 °C 30in /  1014.6hPa SE 2.5mph /  4.1km/h 6mph /  9.7km/h 72.8% 0in /  0.0mm
09:24 75.4 °F /  24.1 °C 66.2 °F /  19 °C 30in /  1014.6hPa ESE 2.9mph /  4.7km/h 5mph /  8km/h 73% 0in /  0.0mm
09:29 75.7 °F /  24.3 °C 66.2 °F /  19 °C 30in /  1014.6hPa Sur 2.7mph /  4.4km/h 5mph /  8km/h 72.7% 0in /  0.0mm
09:34 75.9 °F /  24.4 °C 66.2 °F /  19 °C 30in /  1014.8hPa Sur 2.4mph /  3.9km/h 5mph /  8km/h 72% 0in /  0.0mm
09:39 76.5 °F /  24.7 °C 66.7 °F /  19.3 °C 30in /  1014.8hPa SSE 2.4mph /  3.9km/h 5mph /  8km/h 72% 0in /  0.0mm
09:44 77 °F /  25 °C 66.9 °F /  19.4 °C 30in /  1014.8hPa ESE 2.4mph /  3.9km/h 5mph /  8km/h 71.2% 0in /  0.0mm
09:49 77.9 °F /  25.5 °C 67.3 °F /  19.6 °C 30in /  1014.8hPa Este 2.2mph /  3.6km/h 5.4mph /  8.7km/h 70% 0in /  0.0mm
09:54 78.3 °F /  25.7 °C 67.8 °F /  19.9 °C 30in /  1014.7hPa NNO 1.8mph /  2.9km/h 6mph /  9.7km/h 70.5% 0in /  0.0mm
09:59 78.3 °F /  25.7 °C 68.2 °F /  20.1 °C 30in /  1014.7hPa NNE 2.1mph /  3.4km/h 6mph /  9.7km/h 71.1% 0in /  0.0mm
10:04 78.6 °F /  25.9 °C 68.5 °F /  20.3 °C 30in /  1014.8hPa NE 2.9mph /  4.7km/h 6.9mph /  11.1km/h 71.2% 0in /  0.0mm
10:09 79.2 °F /  26.2 °C 68.7 °F /  20.4 °C 30in /  1014.8hPa NNE 2.7mph /  4.3km/h 7mph /  11.3km/h 70.7% 0in /  0.0mm
10:14 79.3 °F /  26.3 °C 68.7 °F /  20.4 °C 30in /  1014.8hPa North 2mph /  3.2km/h 8.1mph /  13km/h 70% 0in /  0.0mm
10:19 79.2 °F /  26.2 °C 68.9 °F /  20.5 °C 30in /  1014.8hPa NNE 2.5mph /  4.1km/h 8.1mph /  13km/h 70.9% 0in /  0.0mm
10:24 79.2 °F /  26.2 °C 68.7 °F /  20.4 °C 30in /  1014.7hPa NNO 4mph /  6.5km/h 7mph /  11.3km/h 70.6% 0in /  0.0mm
10:29 79.3 °F /  26.3 °C 68.7 °F /  20.4 °C 30in /  1014.7hPa NNE 3.8mph /  6.1km/h 10.2mph /  16.4km/h 70.3% 0in /  0.0mm
10:34 79.3 °F /  26.3 °C 68.7 °F /  20.4 °C 30in /  1014.7hPa ENE 3.1mph /  5km/h 10.4mph /  16.7km/h 70.2% 0in /  0.0mm
10:39 79.3 °F /  26.3 °C 68.9 °F /  20.5 °C 30in /  1014.6hPa NE 3.4mph /  5.4km/h 8.7mph /  14km/h 70.4% 0in /  0.0mm
10:44 79.3 °F /  26.3 °C 68 °F /  20 °C 30in /  1014.6hPa NNE 4mph /  6.5km/h 9.2mph /  14.8km/h 68.1% 0in /  0.0mm
10:49 79.9 °F /  26.6 °C 68.2 °F /  20.1 °C 30in /  1014.6hPa North 4mph /  6.5km/h 9mph /  14.5km/h 67.8% 0in /  0.0mm
10:54 80.2 °F /  26.8 °C 67.3 °F /  19.6 °C 30in /  1014.5hPa NNE 4mph /  6.5km/h 8.1mph /  13km/h 64.6% 0in /  0.0mm
10:59 80.4 °F /  26.9 °C 66.9 °F /  19.4 °C 30in /  1014.5hPa NNO 4mph /  6.5km/h 8.1mph /  13km/h 63.4% 0in /  0.0mm
11:04 80.6 °F /  27 °C 67.1 °F /  19.5 °C 30in /  1014.5hPa NNE 4mph /  6.5km/h 6.2mph /  10km/h 63.3% 0in /  0.0mm
11:09 81.1 °F /  27.3 °C 67.3 °F /  19.6 °C 30in /  1014.5hPa NNE 3.9mph /  6.3km/h 10.4mph /  16.7km/h 63% 0in /  0.0mm
11:14 81.1 °F /  27.3 °C 67.3 °F /  19.6 °C 30in /  1014.5hPa NNE 3.6mph /  5.8km/h 11.8mph /  19km/h 62.9% 0in /  0.0mm
11:19 81.3 °F /  27.4 °C 67.1 °F /  19.5 °C 30in /  1014.5hPa NE 4mph /  6.5km/h 12mph /  19.3km/h 62.2% 0in /  0.0mm
11:24 81.3 °F /  27.4 °C 67.3 °F /  19.6 °C 30in /  1014.5hPa NNO 5.4mph /  8.7km/h 10mph /  16.1km/h 62.4% 0in /  0.0mm
11:29 81.5 °F /  27.5 °C 66.6 °F /  19.2 °C 30in /  1014.5hPa North 5.2mph /  8.4km/h 9mph /  14.5km/h 60.4% 0in /  0.0mm
11:34 81.9 °F /  27.7 °C 66.4 °F /  19.1 °C 30in /  1014.5hPa North 4.7mph /  7.6km/h 8.1mph /  13km/h 59.4% 0in /  0.0mm
11:39 82 °F /  27.8 °C 66.9 °F /  19.4 °C 30in /  1014.4hPa NE 4.6mph /  7.4km/h 11.5mph /  18.5km/h 60% 0in /  0.0mm
11:44 82.4 °F /  28 °C 66.9 °F /  19.4 °C 30in /  1014.4hPa NE 4.3mph /  6.9km/h 12mph /  19.3km/h 59.8% 0in /  0.0mm
11:49 82.8 °F /  28.2 °C 66.4 °F /  19.1 °C 30in /  1014.4hPa NNE 4.5mph /  7.3km/h 9.7mph /  15.6km/h 58% 0in /  0.0mm
11:54 82.9 °F /  28.3 °C 65.8 °F /  18.8 °C 30in /  1014.3hPa NE 5.2mph /  8.4km/h 11.8mph /  19km/h 56.4% 0in /  0.0mm
11:59 83.1 °F /  28.4 °C 65.5 °F /  18.6 °C 30in /  1014.3hPa NE 5.4mph /  8.7km/h 12mph /  19.3km/h 55.4% 0in /  0.0mm
12:04 83.5 °F /  28.6 °C 65.1 °F /  18.4 °C 30in /  1014.3hPa NNE 5.9mph /  9.5km/h 13mph /  20.9km/h 54% 0in /  0.0mm
12:09 83.7 °F /  28.7 °C 65.1 °F /  18.4 °C 30in /  1014.2hPa NNE 6mph /  9.6km/h 13mph /  20.9km/h 53.7% 0in /  0.0mm
12:14 84.2 °F /  29 °C 64 °F /  17.8 °C 30in /  1014.2hPa ENE 6.2mph /  10km/h 16.1mph /  25.9km/h 50.8% 0in /  0.0mm
12:19 84.6 °F /  29.2 °C 63.9 °F /  17.7 °C 30in /  1014.2hPa ENE 6.3mph /  10.1km/h 16.3mph /  26.2km/h 49.8% 0in /  0.0mm
12:24 85.1 °F /  29.5 °C 63.1 °F /  17.3 °C 29.9in /  1013.9hPa NE 6.4mph /  10.3km/h 16mph /  25.7km/h 48% 0in /  0.0mm
12:29 84.9 °F /  29.4 °C 63.1 °F /  17.3 °C 29.9in /  1013.9hPa NE 7.1mph /  11.5km/h 14mph /  22.5km/h 48.1% 0in /  0.0mm
12:34 85.3 °F /  29.6 °C 63 °F /  17.2 °C 29.9in /  1013.9hPa NE 9.2mph /  14.8km/h 15mph /  24.1km/h 47.3% 0in /  0.0mm
12:39 85.5 °F /  29.7 °C 63.7 °F /  17.6 °C 29.9in /  1013.8hPa NE 8.4mph /  13.6km/h 15mph /  24.1km/h 48% 0in /  0.0mm
12:44 86 °F /  30 °C 63.7 °F /  17.6 °C 29.9in /  1013.8hPa NE 6.4mph /  10.3km/h 15.2mph /  24.5km/h 47.6% 0in /  0.0mm
12:49 85.8 °F /  29.9 °C 62.8 °F /  17.1 °C 29.9in /  1013.8hPa NE 6.7mph /  10.8km/h 17.8mph /  28.6km/h 46.2% 0in /  0.0mm
12:54 86.4 °F /  30.2 °C 62.4 °F /  16.9 °C 29.9in /  1013.5hPa NE 7.6mph /  12.2km/h 18.4mph /  29.6km/h 45.1% 0in /  0.0mm
12:59 86.5 °F /  30.3 °C 62.4 °F /  16.9 °C 29.9in /  1013.5hPa NE 8mph /  12.8km/h 17mph /  27.4km/h 44.7% 0in /  0.0mm
13:04 86.7 °F /  30.4 °C 62.8 °F /  17.1 °C 29.9in /  1013.5hPa NE 8.7mph /  14km/h 15mph /  24.1km/h 45% 0in /  0.0mm
13:09 86.9 °F /  30.5 °C 63 °F /  17.2 °C 29.9in /  1013.5hPa NE 8.7mph /  14km/h 15.2mph /  24.5km/h 45.1% 0in /  0.0mm
13:14 87.3 °F /  30.7 °C 61.9 °F /  16.6 °C 29.9in /  1013.5hPa NE 8.7mph /  14km/h 15.2mph /  24.5km/h 42.7% 0in /  0.0mm
13:19 87.4 °F /  30.8 °C 60.6 °F /  15.9 °C 29.9in /  1013.6hPa NE 8.6mph /  13.8km/h 16.3mph /  26.2km/h 40.6% 0in /  0.0mm
13:24 88 °F /  31.1 °C 58.6 °F /  14.8 °C 29.9in /  1013.6hPa NE 8.1mph /  13km/h 18.4mph /  29.6km/h 37.2% 0in /  0.0mm
13:29 88.7 °F /  31.5 °C 57.9 °F /  14.4 °C 29.9in /  1013.6hPa ENE 8.2mph /  13.2km/h 18mph /  29km/h 35.4% 0in /  0.0mm
13:34 89.2 °F /  31.8 °C 57.7 °F /  14.3 °C 29.9in /  1013.6hPa ENE 8.5mph /  13.7km/h 15mph /  24.1km/h 34.6% 0in /  0.0mm
13:39 89.8 °F /  32.1 °C 57.2 °F /  14 °C 29.9in /  1013.5hPa ENE 8.2mph /  13.2km/h 16.3mph /  26.2km/h 33.4% 0in /  0.0mm
13:44 89.8 °F /  32.1 °C 56.3 °F /  13.5 °C 29.9in /  1013.5hPa ENE 7.4mph /  11.9km/h 17.3mph /  27.8km/h 32.4% 0in /  0.0mm
13:49 89.8 °F /  32.1 °C 56.7 °F /  13.7 °C 29.9in /  1013.5hPa NE 7.6mph /  12.2km/h 17mph /  27.4km/h 32.8% 0in /  0.0mm
13:54 89.8 °F /  32.1 °C 56.5 °F /  13.6 °C 29.9in /  1013.5hPa NE 8.1mph /  13km/h 16.1mph /  25.9km/h 32.6% 0in /  0.0mm
13:59 89.6 °F /  32 °C 55.4 °F /  13 °C 29.9in /  1013.5hPa ENE 8.4mph /  13.5km/h 17mph /  27.4km/h 31.5% 0in /  0.0mm
14:04 89.2 °F /  31.8 °C 55.2 °F /  12.9 °C 29.9in /  1013.5hPa NE 9.2mph /  14.8km/h 17.3mph /  27.8km/h 31.6% 0in /  0.0mm
14:09 89.4 °F /  31.9 °C 55.9 °F /  13.3 °C 29.9in /  1013.3hPa NE 9.4mph /  15.1km/h 19.7mph /  31.7km/h 32.4% 0in /  0.0mm
14:14 89.6 °F /  32 °C 55.6 °F /  13.1 °C 29.9in /  1013.3hPa Este 10mph /  16.1km/h 20mph /  32.2km/h 31.8% 0in /  0.0mm
14:19 89.8 °F /  32.1 °C 55.9 °F /  13.3 °C 29.9in /  1013.3hPa ENE 9.8mph /  15.8km/h 19.7mph /  31.7km/h 32.1% 0in /  0.0mm
14:24 89.6 °F /  32 °C 56.5 °F /  13.6 °C 29.9in /  1013.3hPa ENE 9.2mph /  14.8km/h 20mph /  32.2km/h 32.8% 0in /  0.0mm
14:29 89.8 °F /  32.1 °C 55.9 °F /  13.3 °C 29.9in /  1013.3hPa ENE 9.1mph /  14.6km/h 18.4mph /  29.6km/h 32% 0in /  0.0mm
14:34 89.4 °F /  31.9 °C 56.5 °F /  13.6 °C 29.9in /  1013.3hPa ENE 8.7mph /  14km/h 18.4mph /  29.6km/h 32.9% 0in /  0.0mm
14:39 89.2 °F /  31.8 °C 56.7 °F /  13.7 °C 29.9in /  1013.3hPa ENE 8.9mph /  14.4km/h 18mph /  29km/h 33.3% 0in /  0.0mm
14:44 89.2 °F /  31.8 °C 57 °F /  13.9 °C 29.9in /  1013.3hPa ENE 9.7mph /  15.6km/h 15mph /  24.1km/h 33.9% 0in /  0.0mm
14:49 89.2 °F /  31.8 °C 57.2 °F /  14 °C 29.9in /  1013.3hPa NE 9.4mph /  15.2km/h 15mph /  24.1km/h 34% 0in /  0.0mm
14:54 89.2 °F /  31.8 °C 57.4 °F /  14.1 °C 29.9in /  1013.0hPa ENE 8.7mph /  14km/h 16.1mph /  25.9km/h 34.1% 0in /  0.0mm
14:59 88.9 °F /  31.6 °C 57.6 °F /  14.2 °C 29.9in /  1013.0hPa ENE 9.1mph /  14.6km/h 20.7mph /  33.3km/h 34.9% 0in /  0.0mm
15:04 88.5 °F /  31.4 °C 57.7 °F /  14.3 °C 29.9in /  1013.0hPa ENE 10mph /  16.1km/h 21mph /  33.8km/h 35.4% 0in /  0.0mm
15:09 88.9 °F /  31.6 °C 57.6 °F /  14.2 °C 29.9in /  1012.8hPa ENE 10mph /  16.1km/h 19mph /  30.6km/h 34.9% 0in /  0.0mm
15:14 88.5 °F /  31.4 °C 58.3 °F /  14.6 °C 29.9in /  1012.8hPa NE 10mph /  16.1km/h 19mph /  30.6km/h 36.1% 0in /  0.0mm
15:19 88.7 °F /  31.5 °C 59.2 °F /  15.1 °C 29.9in /  1012.8hPa ENE 10.1mph /  16.2km/h 18mph /  29km/h 37.1% 0in /  0.0mm
15:24 89.1 °F /  31.7 °C 59.5 °F /  15.3 °C 29.9in /  1012.8hPa ENE 10.2mph /  16.4km/h 17.3mph /  27.8km/h 37.3% 0in /  0.0mm
15:29 89.2 °F /  31.8 °C 60.1 °F /  15.6 °C 29.9in /  1012.8hPa NE 9.6mph /  15.5km/h 17.3mph /  27.8km/h 37.7% 0in /  0.0mm
15:34 89.1 °F /  31.7 °C 60.4 °F /  15.8 °C 29.9in /  1012.8hPa NE 8.1mph /  13km/h 21.9mph /  35.2km/h 38.3% 0in /  0.0mm
15:39 89.1 °F /  31.7 °C 61 °F /  16.1 °C 29.9in /  1012.6hPa NE 8.6mph /  13.9km/h 22mph /  35.4km/h 39.2% 0in /  0.0mm
15:44 88.9 °F /  31.6 °C 60.6 °F /  15.9 °C 29.9in /  1012.6hPa NE 10.2mph /  16.4km/h 18mph /  29km/h 39% 0in /  0.0mm
15:49 88.9 °F /  31.6 °C 60.3 °F /  15.7 °C 29.9in /  1012.6hPa NE 10.2mph /  16.4km/h 19.7mph /  31.7km/h 38.4% 0in /  0.0mm
15:54 89.1 °F /  31.7 °C 60.4 °F /  15.8 °C 29.9in /  1012.4hPa NE 10.2mph /  16.4km/h 20mph /  32.2km/h 38.5% 0in /  0.0mm
15:59 89.2 °F /  31.8 °C 60.8 °F /  16 °C 29.9in /  1012.4hPa NE 9.7mph /  15.6km/h 20.1mph /  32.3km/h 38.7% 0in /  0.0mm
16:04 88.5 °F /  31.4 °C 59.5 °F /  15.3 °C 29.9in /  1012.4hPa NE 8.5mph /  13.7km/h 23mph /  37km/h 37.7% 0in /  0.0mm
16:09 88.3 °F /  31.3 °C 59.7 °F /  15.4 °C 29.9in /  1012.3hPa ENE 9.3mph /  15km/h 23mph /  37km/h 38.5% 0in /  0.0mm
16:14 88.2 °F /  31.2 °C 59.9 °F /  15.5 °C 29.9in /  1012.3hPa NE 11.8mph /  19km/h 18.5mph /  29.8km/h 38.8% 0in /  0.0mm
16:19 88.3 °F /  31.3 °C 59.7 °F /  15.4 °C 29.9in /  1012.3hPa ENE 11.6mph /  18.7km/h 19mph /  30.6km/h 38.4% 0in /  0.0mm
16:24 88.3 °F /  31.3 °C 59.5 °F /  15.3 °C 29.9in /  1012.2hPa NE 11.2mph /  18km/h 19.6mph /  31.5km/h 38% 0in /  0.0mm
16:29 88.3 °F /  31.3 °C 59.7 °F /  15.4 °C 29.9in /  1012.2hPa NE 10.9mph /  17.6km/h 20mph /  32.2km/h 38.2% 0in /  0.0mm
16:34 88.2 °F /  31.2 °C 60.6 °F /  15.9 °C 29.9in /  1012.2hPa NE 10.2mph /  16.4km/h 19mph /  30.6km/h 39.5% 0in /  0.0mm
16:39 88.3 °F /  31.3 °C 60.4 °F /  15.8 °C 29.9in /  1012.1hPa NE 10.4mph /  16.8km/h 18.5mph /  29.8km/h 39.2% 0in /  0.0mm
16:44 88.3 °F /  31.3 °C 60.4 °F /  15.8 °C 29.9in /  1012.1hPa NE 11.2mph /  18km/h 20.7mph /  33.3km/h 39.3% 0in /  0.0mm
16:49 88.3 °F /  31.3 °C 61.2 °F /  16.2 °C 29.9in /  1012.1hPa ENE 11.2mph /  18km/h 21mph /  33.8km/h 40.3% 0in /  0.0mm
16:54 88.5 °F /  31.4 °C 61.2 °F /  16.2 °C 29.9in /  1012.1hPa ENE 11.2mph /  18km/h 17mph /  27.4km/h 40.2% 0in /  0.0mm
16:59 89.1 °F /  31.7 °C 61.5 °F /  16.4 °C 29.9in /  1012.1hPa ENE 10.3mph /  16.5km/h 16.1mph /  25.9km/h 40% 0in /  0.0mm
17:04 89.1 °F /  31.7 °C 61.5 °F /  16.4 °C 29.9in /  1012.1hPa NE 8.1mph /  13km/h 19.6mph /  31.5km/h 40% 0in /  0.0mm
17:09 88.7 °F /  31.5 °C 61.7 °F /  16.5 °C 29.9in /  1011.9hPa NE 8.6mph /  13.8km/h 20mph /  32.2km/h 40.6% 0in /  0.0mm
17:14 88.3 °F /  31.3 °C 61.7 °F /  16.5 °C 29.9in /  1011.9hPa ENE 10mph /  16.1km/h 18mph /  29km/h 41% 0in /  0.0mm
17:19 88.5 °F /  31.4 °C 61 °F /  16.1 °C 29.9in /  1011.9hPa Este 9.8mph /  15.8km/h 18.4mph /  29.6km/h 39.9% 0in /  0.0mm
17:24 88.3 °F /  31.3 °C 61 °F /  16.1 °C 29.9in /  1011.9hPa ENE 9.2mph /  14.8km/h 18mph /  29km/h 40% 0in /  0.0mm
17:29 88.5 °F /  31.4 °C 61.2 °F /  16.2 °C 29.9in /  1011.9hPa NE 9.3mph /  15km/h 20.7mph /  33.3km/h 40% 0in /  0.0mm
17:34 88.3 °F /  31.3 °C 61.2 °F /  16.2 °C 29.9in /  1011.9hPa ENE 9.7mph /  15.6km/h 21mph /  33.8km/h 40.1% 0in /  0.0mm
17:39 88.2 °F /  31.2 °C 61.5 °F /  16.4 °C 29.9in /  1011.8hPa ENE 9.7mph /  15.6km/h 21.5mph /  34.6km/h 41% 0in /  0.0mm
17:44 88.2 °F /  31.2 °C 61.2 °F /  16.2 °C 29.9in /  1011.8hPa NE 9.7mph /  15.6km/h 22mph /  35.4km/h 40.4% 0in /  0.0mm
17:49 88 °F /  31.1 °C 60.4 °F /  15.8 °C 29.9in /  1011.8hPa NE 10.2mph /  16.4km/h 20.8mph /  33.5km/h 39.5% 0in /  0.0mm
17:54 87.8 °F /  31 °C 61.3 °F /  16.3 °C 29.9in /  1011.6hPa ENE 11.8mph /  19km/h 21mph /  33.8km/h 41.1% 0in /  0.0mm
17:59 88.2 °F /  31.2 °C 61.3 °F /  16.3 °C 29.9in /  1011.6hPa ENE 11.2mph /  18km/h 16mph /  25.7km/h 40.9% 0in /  0.0mm
18:04 88.2 °F /  31.2 °C 61.3 °F /  16.3 °C 29.9in /  1011.6hPa NE 9.7mph /  15.6km/h 19.7mph /  31.7km/h 40.8% 0in /  0.0mm
18:09 88.3 °F /  31.3 °C 60.8 °F /  16 °C 29.9in /  1011.6hPa ENE 9.4mph /  15.2km/h 20mph /  32.2km/h 39.8% 0in /  0.0mm
18:14 88.2 °F /  31.2 °C 60.8 °F /  16 °C 29.9in /  1011.6hPa ENE 8.7mph /  14km/h 17.3mph /  27.8km/h 39.8% 0in /  0.0mm
18:19 87.8 °F /  31 °C 61.5 °F /  16.4 °C 29.9in /  1011.6hPa NE 9.2mph /  14.8km/h 21.9mph /  35.2km/h 41.4% 0in /  0.0mm
18:24 87.4 °F /  30.8 °C 61.7 °F /  16.5 °C 29.9in /  1011.5hPa NE 10.7mph /  17.2km/h 22mph /  35.4km/h 42.3% 0in /  0.0mm
18:29 87.4 °F /  30.8 °C 61.9 °F /  16.6 °C 29.9in /  1011.5hPa ENE 10.7mph /  17.2km/h 21mph /  33.8km/h 42.6% 0in /  0.0mm
18:34 87.6 °F /  30.9 °C 61.7 °F /  16.5 °C 29.9in /  1011.5hPa ENE 10.7mph /  17.2km/h 17mph /  27.4km/h 42% 0in /  0.0mm
18:39 87.6 °F /  30.9 °C 61.7 °F /  16.5 °C 29.9in /  1011.4hPa ENE 10.3mph /  16.6km/h 17.3mph /  27.8km/h 42% 0in /  0.0mm
18:44 87.6 °F /  30.9 °C 62.2 °F /  16.8 °C 29.9in /  1011.4hPa NE 9.2mph /  14.8km/h 19.6mph /  31.5km/h 42.8% 0in /  0.0mm
18:49 87.4 °F /  30.8 °C 62.2 °F /  16.8 °C 29.9in /  1011.4hPa ENE 9.1mph /  14.6km/h 20mph /  32.2km/h 43% 0in /  0.0mm
18:54 87.3 °F /  30.7 °C 62.4 °F /  16.9 °C 29.9in /  1011.3hPa ENE 8.7mph /  14km/h 16.3mph /  26.2km/h 43.6% 0in /  0.0mm
18:59 87.1 °F /  30.6 °C 62.4 °F /  16.9 °C 29.9in /  1011.3hPa ENE 8.7mph /  14km/h 16.1mph /  25.9km/h 44% 0in /  0.0mm
19:04 87.1 °F /  30.6 °C 62.4 °F /  16.9 °C 29.9in /  1011.3hPa NE 8.7mph /  14km/h 16mph /  25.7km/h 44% 0in /  0.0mm
19:09 86.9 °F /  30.5 °C 62.6 °F /  17 °C 29.9in /  1011.3hPa ENE 8.9mph /  14.4km/h 16.1mph /  25.9km/h 44.3% 0in /  0.0mm
19:14 86.5 °F /  30.3 °C 63 °F /  17.2 °C 29.9in /  1011.3hPa NE 9.7mph /  15.6km/h 16.1mph /  25.9km/h 45.3% 0in /  0.0mm
19:19 86.7 °F /  30.4 °C 63 °F /  17.2 °C 29.9in /  1011.3hPa NE 9.1mph /  14.7km/h 16.3mph /  26.2km/h 45.1% 0in /  0.0mm
19:24 86.5 °F /  30.3 °C 63 °F /  17.2 °C 29.9in /  1011.2hPa ENE 7.6mph /  12.2km/h 19.2mph /  30.9km/h 45.3% 0in /  0.0mm
19:29 86.4 °F /  30.2 °C 63.1 °F /  17.3 °C 29.9in /  1011.2hPa ENE 7.8mph /  12.6km/h 19mph /  30.6km/h 46% 0in /  0.0mm
19:34 86 °F /  30 °C 63 °F /  17.2 °C 29.9in /  1011.3hPa ENE 8.5mph /  13.7km/h 16mph /  25.7km/h 46.1% 0in /  0.0mm
19:39 85.8 °F /  29.9 °C 63.1 °F /  17.3 °C 29.9in /  1011.3hPa ENE 8.6mph /  13.8km/h 15mph /  24.1km/h 46.6% 0in /  0.0mm
19:44 85.8 °F /  29.9 °C 63.1 °F /  17.3 °C 29.9in /  1011.3hPa NE 8.7mph /  14km/h 15mph /  24.1km/h 46.6% 0in /  0.0mm
19:49 85.6 °F /  29.8 °C 63.5 °F /  17.5 °C 29.9in /  1011.3hPa NE 8.6mph /  13.8km/h 16.1mph /  25.9km/h 47.6% 0in /  0.0mm
19:54 85.5 °F /  29.7 °C 64 °F /  17.8 °C 29.9in /  1011.3hPa NE 8.1mph /  13km/h 16mph /  25.7km/h 49.1% 0in /  0.0mm
19:59 85.1 °F /  29.5 °C 64.6 °F /  18.1 °C 29.9in /  1011.3hPa ENE 8.2mph /  13.2km/h 16.1mph /  25.9km/h 50.4% 0in /  0.0mm
20:04 84.9 °F /  29.4 °C 64.8 °F /  18.2 °C 29.9in /  1011.3hPa NE 8.5mph /  13.7km/h 16mph /  25.7km/h 51% 0in /  0.0mm
20:09 84.7 °F /  29.3 °C 64.9 °F /  18.3 °C 29.9in /  1011.3hPa NE 8.3mph /  13.3km/h 14mph /  22.5km/h 51.6% 0in /  0.0mm
20:14 84.6 °F /  29.2 °C 65.3 °F /  18.5 °C 29.9in /  1011.3hPa NE 7.6mph /  12.2km/h 15.9mph /  25.6km/h 52.6% 0in /  0.0mm
20:19 84.4 °F /  29.1 °C 65.3 °F /  18.5 °C 29.9in /  1011.4hPa ENE 7.8mph /  12.5km/h 16.1mph /  25.9km/h 53% 0in /  0.0mm
20:24 84 °F /  28.9 °C 64.9 °F /  18.3 °C 29.9in /  1011.4hPa ENE 8.1mph /  13km/h 16mph /  25.7km/h 52.6% 0in /  0.0mm
20:29 83.8 °F /  28.8 °C 65.1 °F /  18.4 °C 29.9in /  1011.4hPa ENE 8.1mph /  13km/h 15mph /  24.1km/h 53.6% 0in /  0.0mm
20:34 83.5 °F /  28.6 °C 65.3 °F /  18.5 °C 29.9in /  1011.4hPa NE 8.1mph /  13km/h 15mph /  24.1km/h 54.5% 0in /  0.0mm
20:39 83.1 °F /  28.4 °C 65.7 °F /  18.7 °C 29.9in /  1011.4hPa NE 8.1mph /  13km/h 15mph /  24.1km/h 55.7% 0in /  0.0mm
20:44 83.1 °F /  28.4 °C 66 °F /  18.9 °C 29.9in /  1011.4hPa ENE 8.1mph /  13km/h 13mph /  20.9km/h 56.7% 0in /  0.0mm
20:49 82.8 °F /  28.2 °C 66.6 °F /  19.2 °C 29.9in /  1011.5hPa ENE 8.2mph /  13.2km/h 15mph /  24.1km/h 58% 0in /  0.0mm
20:54 82.6 °F /  28.1 °C 65.8 °F /  18.8 °C 29.9in /  1011.5hPa NE 8.5mph /  13.7km/h 15mph /  24.1km/h 56.9% 0in /  0.0mm
20:59 82.6 °F /  28.1 °C 65.3 °F /  18.5 °C 29.9in /  1011.5hPa NE 8.4mph /  13.5km/h 15mph /  24.1km/h 56% 0in /  0.0mm
21:04 82.4 °F /  28 °C 65.1 °F /  18.4 °C 29.9in /  1011.5hPa NE 8.1mph /  13km/h 14mph /  22.5km/h 56% 0in /  0.0mm
21:09 82.2 °F /  27.9 °C 64.9 °F /  18.3 °C 29.9in /  1011.5hPa NE 8.1mph /  13km/h 14mph /  22.5km/h 56.1% 0in /  0.0mm
21:14 82 °F /  27.8 °C 65.7 °F /  18.7 °C 29.9in /  1011.5hPa NE 8.1mph /  13km/h 13.8mph /  22.2km/h 57.4% 0in /  0.0mm
21:19 81.9 °F /  27.7 °C 66.2 °F /  19 °C 29.9in /  1011.6hPa NE 7.9mph /  12.7km/h 14mph /  22.5km/h 59.1% 0in /  0.0mm
21:24 81.5 °F /  27.5 °C 66.7 °F /  19.3 °C 29.9in /  1011.6hPa NE 7.4mph /  11.9km/h 14mph /  22.5km/h 60.8% 0in /  0.0mm
21:29 81.3 °F /  27.4 °C 67.3 °F /  19.6 °C 29.9in /  1011.6hPa NE 7.3mph /  11.7km/h 13mph /  20.9km/h 62.4% 0in /  0.0mm
21:34 81 °F /  27.2 °C 68 °F /  20 °C 29.9in /  1011.6hPa NE 6.9mph /  11.1km/h 13.7mph /  22km/h 65% 0in /  0.0mm
21:39 80.6 °F /  27 °C 68.4 °F /  20.2 °C 29.9in /  1011.6hPa NE 7.1mph /  11.4km/h 14mph /  22.5km/h 66.5% 0in /  0.0mm
21:44 80.2 °F /  26.8 °C 68.4 °F /  20.2 °C 29.9in /  1011.6hPa NE 7.6mph /  12.2km/h 14mph /  22.5km/h 67% 0in /  0.0mm
21:49 80.2 °F /  26.8 °C 68.5 °F /  20.3 °C 29.9in /  1011.6hPa NE 7.8mph /  12.6km/h 16.1mph /  25.9km/h 67.7% 0in /  0.0mm
21:54 80.1 °F /  26.7 °C 68.7 °F /  20.4 °C 29.9in /  1011.6hPa NE 8.5mph /  13.7km/h 16mph /  25.7km/h 68.5% 0in /  0.0mm
21:59 79.9 °F /  26.6 °C 68.7 °F /  20.4 °C 29.9in /  1011.6hPa NE 8.6mph /  13.8km/h 14mph /  22.5km/h 68.9% 0in /  0.0mm
22:04 79.5 °F /  26.4 °C 68.2 °F /  20.1 °C 29.9in /  1011.6hPa NE 8.7mph /  14km/h 15.2mph /  24.5km/h 68.1% 0in /  0.0mm
22:09 79.5 °F /  26.4 °C 68 °F /  20 °C 29.9in /  1011.6hPa NE 8.7mph /  14km/h 15mph /  24.1km/h 68% 0in /  0.0mm
22:14 79.3 °F /  26.3 °C 68.4 °F /  20.2 °C 29.9in /  1011.6hPa NE 8.7mph /  14km/h 13mph /  20.9km/h 69% 0in /  0.0mm
22:19 79.3 °F /  26.3 °C 68.4 °F /  20.2 °C 29.9in /  1011.7hPa NE 8.6mph /  13.9km/h 13mph /  20.9km/h 69% 0in /  0.0mm
22:24 79.3 °F /  26.3 °C 68.4 °F /  20.2 °C 29.9in /  1011.7hPa NE 8.5mph /  13.7km/h 12mph /  19.3km/h 69% 0in /  0.0mm
22:29 79.2 °F /  26.2 °C 68.2 °F /  20.1 °C 29.9in /  1011.7hPa NE 7.9mph /  12.7km/h 12mph /  19.3km/h 69.1% 0in /  0.0mm
22:34 79.2 °F /  26.2 °C 68.5 °F /  20.3 °C 29.9in /  1011.8hPa NE 6.4mph /  10.3km/h 13.8mph /  22.2km/h 70% 0in /  0.0mm
22:39 79 °F /  26.1 °C 68.4 °F /  20.2 °C 29.9in /  1011.8hPa NE 6.6mph /  10.7km/h 14mph /  22.5km/h 70% 0in /  0.0mm
22:44 79 °F /  26.1 °C 68.7 °F /  20.4 °C 29.9in /  1011.8hPa NE 7.4mph /  11.9km/h 13mph /  20.9km/h 70.9% 0in /  0.0mm
22:49 78.8 °F /  26 °C 68.7 °F /  20.4 °C 29.9in /  1012.0hPa NE 7mph /  11.2km/h 10.7mph /  17.2km/h 71.3% 0in /  0.0mm
22:54 78.6 °F /  25.9 °C 68.9 °F /  20.5 °C 29.9in /  1012.0hPa NE 5.9mph /  9.5km/h 11.5mph /  18.5km/h 72% 0in /  0.0mm
22:59 78.6 °F /  25.9 °C 69.1 °F /  20.6 °C 29.9in /  1012.0hPa NE 6mph /  9.6km/h 12mph /  19.3km/h 72.9% 0in /  0.0mm
23:04 78.4 °F /  25.8 °C 69.1 °F /  20.6 °C 29.9in /  1012.2hPa NE 6.2mph /  10km/h 9mph /  14.5km/h 73% 0in /  0.0mm
23:09 78.4 °F /  25.8 °C 69.3 °F /  20.7 °C 29.9in /  1012.2hPa NE 5.8mph /  9.4km/h 7.4mph /  11.9km/h 73.5% 0in /  0.0mm
23:14 78.4 °F /  25.8 °C 69.4 °F /  20.8 °C 29.9in /  1012.2hPa NE 4.7mph /  7.6km/h 8.1mph /  13km/h 74% 0in /  0.0mm
23:19 78.4 °F /  25.8 °C 69.4 °F /  20.8 °C 29.9in /  1012.2hPa NE 4.8mph /  7.8km/h 8.5mph /  13.7km/h 74% 0in /  0.0mm
23:24 78.3 °F /  25.7 °C 69.6 °F /  20.9 °C 29.9in /  1012.2hPa NE 5.2mph /  8.4km/h 10mph /  16.1km/h 74.9% 0in /  0.0mm
23:29 78.3 °F /  25.7 °C 69.6 °F /  20.9 °C 29.9in /  1012.2hPa NE 5mph /  8.1km/h 10mph /  16.1km/h 75% 0in /  0.0mm
23:34 78.3 °F /  25.7 °C 69.6 °F /  20.9 °C 29.9in /  1012.4hPa NE 4.7mph /  7.6km/h 7mph /  11.3km/h 75% 0in /  0.0mm
23:39 78.1 °F /  25.6 °C 69.4 °F /  20.8 °C 29.9in /  1012.4hPa NE 4.5mph /  7.2km/h 7mph /  11.3km/h 75% 0in /  0.0mm
23:44 78.1 °F /  25.6 °C 69.4 °F /  20.8 °C 29.9in /  1012.4hPa NNE 3.6mph /  5.8km/h 5mph /  8km/h 75% 0in /  0.0mm
23:49 78.1 °F /  25.6 °C 69.4 °F /  20.8 °C 29.9in /  1012.8hPa NNE 2.7mph /  4.4km/h   75% 0in /  0.0mm
23:54 78.1 °F /  25.6 °C 69.4 °F /  20.8 °C 29.9in /  1012.8hPa Calm   4.6mph /  7.4km/h 75% 0in /  0.0mm
23:59 78.1 °F /  25.6 °C 69.4 °F /  20.8 °C 29.9in /  1012.8hPa NNO 0.7mph /  1.2km/h 5mph /  8km/h 75% 0in /  0.0mm
Murcia-Puente Tocinos, España
Compliments of Weather Underground - 3 mb

La estación de MeteoMurcia.com, publica sus datos en los siguientes proyectos:

Weather Underground PWS IMURCIAP2 Meteoclimatic www.awekas.at

W3Counter
Web Analytics